< < Back
Terminal Aerodrome Forecast


Current Version              Previous Versions:   1  2  3  4  5  6  7  8  9  

Terminal Aerodrome Forecast

590
FTUS42 KTAE 291737
TAFVLD
TAF
KVLD 291737Z 2918/3018 35005KT P6SM SCT050
     FM300100 00000KT P6SM SCT200
     FM301400 33007KT P6SM FEW040=

Latest METAR

508
SAUS70 KWBC 292100 RRA
MTRVLD
METAR KVLD 292053Z 01006KT 10SM FEW070 32/16 A3002 RMK AO2 SLP170
T03170161 56017


USA.gov is the U.S. government's official web portal to all federal, state and local government web resources and services.